< Typhoon 197922 1979 Season Typhoon 197924 >
Typhoon 197923 (ABBY)
General InformationTrack Information on Google MapsDetailed Wind Information || Disaster Info.ResourceGoogle EarthGE AnimationAtom FeedGeoJSON
Detalied Best Track (Time Zone = UTC)
Year Month Day Hour Lat. Long. Pressure (hPa) Wind (kt) Class Image Chart
1979 12 1 06 5.9 163.0 1006 0 2 Image Chart
1979 12 1 12 5.8 161.7 1004 0 2 Image Chart
1979 12 1 18 5.6 160.8 1004 0 2 Image Chart
1979 12 2 00 5.8 160.3 996 35 3 Image Chart
1979 12 2 06 5.9 159.9 996 35 3 Image Chart
1979 12 2 12 6.0 159.6 994 35 3 Image Chart
1979 12 2 18 6.1 159.3 992 35 3 Image Chart
1979 12 3 00 6.3 159.0 990 55 4 Image Chart
1979 12 3 06 6.5 159.0 994 55 4 Image Chart
1979 12 3 12 6.7 159.0 996 45 3 Image Chart
1979 12 3 18 7.3 158.8 990 45 3 Image Chart
1979 12 4 00 8.1 158.5 994 50 4 Image Chart
1979 12 4 06 8.2 157.3 990 50 4 Image Chart
1979 12 4 12 8.2 156.5 990 55 4 Image Chart
1979 12 4 18 8.2 155.8 985 55 4 Image Chart
1979 12 5 00 8.3 155.1 985 60 4 Image Chart
1979 12 5 06 7.9 154.2 990 60 4 Image Chart
1979 12 5 12 7.8 153.4 990 60 4 Image Chart
1979 12 5 18 8.0 152.5 990 55 4 Image Chart
1979 12 6 00 8.6 151.8 990 55 4 Image Chart
1979 12 6 06 9.4 151.4 990 55 4 Image Chart
1979 12 6 12 9.3 149.8 990 55 4 Image Chart
1979 12 6 18 9.4 146.9 990 50 4 Image Chart
1979 12 7 00 9.6 145.5 990 50 4 Image Chart
1979 12 7 06 10.1 145.0 992 50 4 Image Chart
1979 12 7 12 10.2 144.8 992 50 4 Image Chart
1979 12 7 18 10.6 144.8 992 45 3 Image Chart
1979 12 8 00 11.4 144.6 992 40 3 Image Chart
1979 12 8 06 12.2 143.5 994 35 3 Image Chart
1979 12 8 12 11.8 142.0 994 35 3 Image Chart
1979 12 8 18 11.7 140.5 996 40 3 Image Chart
1979 12 9 00 11.3 139.3 998 0 2 Image Chart
1979 12 9 06 11.2 137.8 998 0 2 Image Chart
1979 12 9 12 9.8 134.7 985 45 3 Image Chart
1979 12 9 18 10.5 134.4 980 45 3 Image Chart
1979 12 10 00 11.3 133.8 985 60 4 Image Chart
1979 12 10 06 11.6 132.7 980 60 4 Image Chart
1979 12 10 12 12.2 132.0 975 60 4 Image Chart
1979 12 10 18 13.0 131.3 970 60 4 Image Chart
1979 12 11 00 13.7 130.7 965 70 5 Image Chart
1979 12 11 06 14.3 130.2 965 70 5 Image Chart
1979 12 11 12 14.8 130.0 960 70 5 Image Chart
1979 12 11 18 15.5 130.1 955 70 5 Image Chart
1979 12 12 00 16.4 130.4 955 80 5 Image Chart
1979 12 12 06 17.1 131.0 950 90 5 Image Chart
1979 12 12 12 18.0 132.0 950 85 5 Image Chart
1979 12 12 18 19.0 133.2 950 75 5 Image Chart
1979 12 13 00 19.8 134.7 955 75 5 Image Chart
1979 12 13 06 19.8 134.7 955 80 5 Image Chart
1979 12 13 12 21.2 138.2 970 80 5 Image Chart
1979 12 13 18 21.9 140.3 980 70 5 Image Chart
1979 12 14 00 22.4 142.7 985 60 4 Image Chart
1979 12 14 06 22.7 144.9 996 45 3 Image Chart
1979 12 14 12 22.9 147.7 1000 0 2 Image Chart
1979 12 14 18 23.1 150.7 1000 0 2 Image Chart
1979 12 15 00 23.4 153.2 1006 0 6 Image Chart
1979 12 15 06 24.0 156.0 1008 0 6 Image Chart
1979 12 15 12 24.4 159.0 1012 0 6 Image Chart
Japan Meteorological Agency Best Track Data | Correction Date : 1992-10-21
< Typhoon 197922 1979 Season Typhoon 197924 >

Help